Red Lake, Arizona
Current Conditions -  °F | °C
As of 7:56 PM on Monday 26 Jan 2015 (Local Time) from KINW Reporting Station
Clear Clear  
Wind Chill: 38°   Ceiling: Unl
Heat Index: 41°   Visibility: 10mi
Dew Point: 30°   Wind: 5mph
Humidity: 65%   Direction: 300°WNW
Pressure: 30.26"   Gusts: NA
Location:  35.9324°N, 110.869°W
Report Text: KINW 270256Z AUTO 30004KT 10SM CLR 05/M01 A3026 RMK AO2 SLP255 T00501011 50007
Loading
Personal Weather Stations






























Interactive Weather Map New forecast layout! Learn more

10-Day Weather Forecast

Advertisements
Track Severe Weather on mobile